createdAt,value
2023-05-15T00:02:09.457Z,5.10
2023-05-15T00:04:36.167Z,5.17
2023-05-15T00:07:02.817Z,5.73
2023-05-15T00:09:29.398Z,4.83
2023-05-15T00:11:56.614Z,6.90
2023-05-15T00:14:24.310Z,5.03
2023-05-15T00:16:50.929Z,5.30
2023-05-15T00:19:17.663Z,5.27
2023-05-15T00:21:44.480Z,5.63
2023-05-15T00:24:11.077Z,7.10
2023-05-15T00:26:37.789Z,5.00
2023-05-15T00:29:04.385Z,5.30
2023-05-15T00:31:31.084Z,6.17
2023-05-15T00:33:57.738Z,5.83
2023-05-15T00:36:25.863Z,5.13
2023-05-15T00:38:53.738Z,5.57
2023-05-15T00:41:22.497Z,5.10
2023-05-15T00:43:52.097Z,5.27
2023-05-15T00:46:20.467Z,5.87
2023-05-15T00:48:48.320Z,4.93
2023-05-15T00:51:14.986Z,6.20
2023-05-15T00:53:42.828Z,5.70
2023-05-15T00:56:10.892Z,5.60
2023-05-15T00:58:38.353Z,5.07
2023-05-15T01:01:07.440Z,5.63
2023-05-15T01:03:36.039Z,5.57
2023-05-15T01:06:02.808Z,8.27
2023-05-15T01:08:46.635Z,5.97
2023-05-15T01:11:15.583Z,6.10
2023-05-15T01:13:42.758Z,5.80
2023-05-15T01:16:10.159Z,5.50
2023-05-15T01:18:37.489Z,5.40
2023-05-15T01:21:31.998Z,5.40
2023-05-15T01:24:34.050Z,5.47
2023-05-15T01:27:18.897Z,5.20
2023-05-15T01:29:51.018Z,5.57
2023-05-15T01:32:24.048Z,5.37
2023-05-15T01:35:20.163Z,5.23
2023-05-15T01:37:51.182Z,5.50
2023-05-15T01:40:20.536Z,5.63
2023-05-15T01:43:11.505Z,6.07
2023-05-15T01:45:41.020Z,6.93
2023-05-15T01:48:08.789Z,5.33
2023-05-15T01:50:38.048Z,6.67
2023-05-15T01:53:07.894Z,5.97
2023-05-15T01:55:35.178Z,6.60
2023-05-15T01:58:02.818Z,7.57
2023-05-15T02:00:30.160Z,6.47
2023-05-15T02:02:57.890Z,8.37
2023-05-15T02:05:26.364Z,5.77
2023-05-15T02:07:53.591Z,5.90
2023-05-15T02:10:20.836Z,6.10
2023-05-15T02:12:49.420Z,6.83
2023-05-15T02:15:20.054Z,8.20
2023-05-15T02:17:46.696Z,6.67
2023-05-15T02:20:14.275Z,6.40
2023-05-15T02:22:40.952Z,6.07
2023-05-15T02:25:07.905Z,5.87
2023-05-15T02:27:51.177Z,6.37
2023-05-15T02:30:53.003Z,6.80
2023-05-15T02:33:49.950Z,6.43
2023-05-15T02:36:22.643Z,6.57
2023-05-15T02:38:52.778Z,6.87
2023-05-15T02:41:20.005Z,6.33
2023-05-15T02:43:49.042Z,6.80
2023-05-15T02:46:16.198Z,6.77
2023-05-15T02:48:44.131Z,6.43
2023-05-15T02:51:10.940Z,6.23
2023-05-15T02:53:41.599Z,6.70
2023-05-15T02:56:09.001Z,8.93
2023-05-15T02:58:36.273Z,7.40
2023-05-15T03:01:03.470Z,6.50
2023-05-15T03:03:30.335Z,7.93
2023-05-15T03:05:56.929Z,7.00
2023-05-15T03:08:23.518Z,7.57
2023-05-15T03:10:50.209Z,8.00
2023-05-15T03:13:16.835Z,6.80
2023-05-15T03:15:46.671Z,8.07
2023-05-15T03:18:13.486Z,6.60
2023-05-15T03:20:40.750Z,5.87
2023-05-15T03:23:07.387Z,6.00
2023-05-15T03:25:33.972Z,6.20
2023-05-15T03:28:00.600Z,6.67
2023-05-15T03:30:27.303Z,7.23
2023-05-15T03:32:54.088Z,7.80
2023-05-15T03:35:20.710Z,7.17
2023-05-15T03:37:47.292Z,7.33
2023-05-15T03:40:14.190Z,7.87
2023-05-15T03:42:40.764Z,7.10
2023-05-15T03:45:08.225Z,6.37
2023-05-15T03:47:34.835Z,6.43
2023-05-15T03:50:01.487Z,8.97
2023-05-15T03:52:28.112Z,7.63
2023-05-15T03:54:54.737Z,7.07
2023-05-15T03:57:21.363Z,8.23
2023-05-15T03:59:47.969Z,7.50
2023-05-15T04:02:14.735Z,6.13
2023-05-15T04:04:41.540Z,6.50
2023-05-15T04:07:08.173Z,6.67
2023-05-15T04:09:34.777Z,6.13
2023-05-15T04:12:01.351Z,6.80
2023-05-15T04:14:28.741Z,7.43
2023-05-15T04:16:55.392Z,6.97
2023-05-15T04:19:22.191Z,6.93
2023-05-15T04:21:48.898Z,6.70
2023-05-15T04:24:15.552Z,6.87
2023-05-15T04:26:42.257Z,6.27
2023-05-15T04:29:09.313Z,6.20
2023-05-15T04:31:36.170Z,5.80
2023-05-15T04:34:04.304Z,5.80
2023-05-15T04:36:31.689Z,6.23
2023-05-15T04:38:58.311Z,6.97
2023-05-15T04:41:25.540Z,6.07
2023-05-15T04:43:52.195Z,8.43
2023-05-15T04:46:18.851Z,7.73
2023-05-15T04:48:45.589Z,9.70
2023-05-15T04:51:12.281Z,6.70
2023-05-15T04:53:38.899Z,7.10
2023-05-15T04:56:05.665Z,6.17
2023-05-15T04:58:32.337Z,7.40
2023-05-15T05:00:59.831Z,6.63
2023-05-15T05:03:28.181Z,7.37
2023-05-15T05:05:54.822Z,7.40
2023-05-15T05:08:21.530Z,6.63
2023-05-15T05:10:48.191Z,7.30
2023-05-15T05:13:14.787Z,6.73
2023-05-15T05:15:41.415Z,6.83
2023-05-15T05:18:08.088Z,8.57
2023-05-15T05:20:34.887Z,9.23
2023-05-15T05:23:01.495Z,8.93
2023-05-15T05:25:28.198Z,8.17
2023-05-15T05:27:54.879Z,9.17
2023-05-15T05:30:22.281Z,8.90
2023-05-15T05:32:49.036Z,8.57
2023-05-15T05:35:15.715Z,9.40
2023-05-15T05:37:42.426Z,10.60
2023-05-15T05:40:09.690Z,9.43
2023-05-15T05:42:36.350Z,10.37
2023-05-15T05:45:03.075Z,8.40
2023-05-15T05:47:29.702Z,9.70
2023-05-15T05:49:57.024Z,7.73
2023-05-15T05:52:23.691Z,7.83
2023-05-15T05:54:50.581Z,9.03
2023-05-15T05:57:17.339Z,8.00
2023-05-15T05:59:44.082Z,8.30
2023-05-15T06:02:11.421Z,8.70
2023-05-15T06:04:38.248Z,8.57
2023-05-15T06:07:05.092Z,9.43
2023-05-15T06:09:31.860Z,10.00
2023-05-15T06:11:58.594Z,8.87
2023-05-15T06:14:25.275Z,10.03
2023-05-15T06:16:52.303Z,8.47
2023-05-15T06:19:19.079Z,7.77
2023-05-15T06:21:45.868Z,9.07
2023-05-15T06:24:12.609Z,8.07
2023-05-15T06:26:39.276Z,7.60
2023-05-15T06:29:05.916Z,7.77
2023-05-15T06:31:32.613Z,8.33
2023-05-15T06:33:59.463Z,7.63
2023-05-15T06:36:26.210Z,7.27
2023-05-15T06:38:52.794Z,6.83
2023-05-15T06:41:19.408Z,8.53
2023-05-15T06:43:46.073Z,8.23
2023-05-15T06:46:16.097Z,8.63
2023-05-15T06:48:42.806Z,9.57
2023-05-15T06:51:09.499Z,8.20
2023-05-15T06:53:36.188Z,10.57
2023-05-15T06:56:02.876Z,8.77
2023-05-15T06:58:29.690Z,11.00
2023-05-15T07:00:56.924Z,7.97
2023-05-15T07:03:24.268Z,9.57
2023-05-15T07:05:52.066Z,9.67
2023-05-15T07:08:18.716Z,8.30
2023-05-15T07:10:45.599Z,8.90
2023-05-15T07:13:12.180Z,7.37
2023-05-15T07:15:39.216Z,7.93
2023-05-15T07:18:06.685Z,8.27
2023-05-15T07:20:34.980Z,7.40
2023-05-15T07:23:01.905Z,8.17
2023-05-15T07:25:28.886Z,6.97
2023-05-15T07:27:55.776Z,8.00
2023-05-15T07:30:23.219Z,9.17
2023-05-15T07:32:50.270Z,8.60
2023-05-15T07:35:17.030Z,7.60
2023-05-15T07:37:43.901Z,7.50
2023-05-15T07:40:10.933Z,7.40
2023-05-15T07:42:39.545Z,7.73
2023-05-15T07:45:07.302Z,8.30
2023-05-15T07:47:35.559Z,7.57
2023-05-15T07:50:02.667Z,7.40
2023-05-15T07:52:29.335Z,6.63
2023-05-15T07:54:55.955Z,5.90
2023-05-15T07:57:23.089Z,7.33
2023-05-15T07:59:49.688Z,6.07
2023-05-15T08:02:16.309Z,7.60
2023-05-15T08:04:43.028Z,6.07
2023-05-15T08:07:09.840Z,6.40
2023-05-15T08:09:36.439Z,7.97
2023-05-15T08:12:21.157Z,6.27
2023-05-15T08:14:52.433Z,7.40
2023-05-15T08:17:19.491Z,6.67
2023-05-15T08:19:46.629Z,6.13
2023-05-15T08:22:13.460Z,6.37
2023-05-15T08:24:40.542Z,7.13
2023-05-15T08:27:08.321Z,6.30
2023-05-15T08:29:39.701Z,6.40
2023-05-15T08:32:07.694Z,6.37
2023-05-15T08:34:34.411Z,6.70
2023-05-15T08:37:01.047Z,7.63
2023-05-15T08:39:27.748Z,8.03
2023-05-15T08:42:27.498Z,5.97
2023-05-15T08:44:55.791Z,6.20
2023-05-15T08:47:23.531Z,5.80
2023-05-15T08:50:14.872Z,6.30
2023-05-15T08:52:46.901Z,6.43
2023-05-15T08:55:14.875Z,6.03
2023-05-15T08:57:42.141Z,6.33
2023-05-15T09:00:11.736Z,5.73
2023-05-15T09:02:39.568Z,6.27
2023-05-15T09:05:09.739Z,5.17
2023-05-15T09:07:37.921Z,5.53
2023-05-15T09:10:05.620Z,4.47
2023-05-15T09:12:34.594Z,5.20
2023-05-15T09:15:11.331Z,5.40
2023-05-15T09:17:38.809Z,5.20
2023-05-15T09:20:06.179Z,4.97
2023-05-15T09:22:36.601Z,5.17
2023-05-15T09:25:05.049Z,5.50
2023-05-15T09:27:42.790Z,5.63
2023-05-15T09:30:10.171Z,5.50
2023-05-15T09:32:37.744Z,4.87
2023-05-15T09:35:04.712Z,4.93
2023-05-15T09:37:33.014Z,5.57
2023-05-15T09:40:10.917Z,6.00
2023-05-15T09:42:38.546Z,5.67
2023-05-15T09:45:06.534Z,5.50
2023-05-15T09:47:34.217Z,4.63
2023-05-15T09:50:01.260Z,4.60
2023-05-15T09:52:28.904Z,6.10
2023-05-15T09:54:57.074Z,4.37
2023-05-15T09:57:23.978Z,4.63
2023-05-15T09:59:50.781Z,4.20
2023-05-15T10:02:25.032Z,5.27
2023-05-15T10:04:56.771Z,4.20
2023-05-15T10:07:34.450Z,2.93
2023-05-15T10:10:03.627Z,5.23
2023-05-15T10:12:32.023Z,6.83
2023-05-15T10:15:00.689Z,2.50
2023-05-15T10:17:34.423Z,4.70
2023-05-15T10:20:02.243Z,2.03
2023-05-15T10:22:30.701Z,2.17
2023-05-15T10:25:05.609Z,2.10
2023-05-15T10:27:35.312Z,2.90
2023-05-15T10:30:03.674Z,3.23
2023-05-15T10:32:30.882Z,3.63
2023-05-15T10:34:58.265Z,4.53
2023-05-15T10:37:25.771Z,3.83
2023-05-15T10:39:55.893Z,4.07
2023-05-15T10:42:26.081Z,4.37
2023-05-15T10:44:59.954Z,3.23
2023-05-15T10:47:27.930Z,4.57
2023-05-15T10:49:54.844Z,3.73
2023-05-15T10:52:21.860Z,3.87
2023-05-15T10:54:48.551Z,3.50
2023-05-15T10:57:15.520Z,5.23
2023-05-15T10:59:42.291Z,3.17
2023-05-15T11:02:30.355Z,4.03
2023-05-15T11:04:59.597Z,4.67
2023-05-15T11:07:26.665Z,3.20
2023-05-15T11:09:54.844Z,4.17
2023-05-15T11:12:22.466Z,6.37
2023-05-15T11:14:52.129Z,4.33
2023-05-15T11:17:18.913Z,3.93
2023-05-15T11:19:51.723Z,4.37
2023-05-15T11:22:36.556Z,4.67
2023-05-15T11:25:08.876Z,4.60
2023-05-15T11:27:43.487Z,6.00
2023-05-15T11:30:15.416Z,5.07
2023-05-15T11:32:48.099Z,4.63
2023-05-15T11:35:23.626Z,4.90
2023-05-15T11:37:54.047Z,5.10
2023-05-15T11:40:23.937Z,4.73
2023-05-15T11:43:29.517Z,4.20
2023-05-15T11:46:08.796Z,4.60
2023-05-15T11:48:39.528Z,4.70
2023-05-15T11:51:11.861Z,4.97
2023-05-15T11:53:39.935Z,4.90
2023-05-15T11:56:07.117Z,5.30
2023-05-15T11:58:33.739Z,4.90
2023-05-15T12:01:00.454Z,4.97
2023-05-15T12:03:38.528Z,5.20
2023-05-15T12:06:06.180Z,8.17
2023-05-15T12:08:34.824Z,4.40
2023-05-15T12:11:03.034Z,5.00
2023-05-15T12:13:31.441Z,4.57
2023-05-15T12:15:59.302Z,5.43
2023-05-15T12:18:26.120Z,6.00
2023-05-15T12:20:54.288Z,4.83
2023-05-15T12:23:23.355Z,5.20
2023-05-15T12:25:54.875Z,5.60
2023-05-15T12:28:22.105Z,6.20
2023-05-15T12:30:49.865Z,7.40
2023-05-15T12:33:16.954Z,5.03
2023-05-15T12:35:52.081Z,6.50
2023-05-15T12:38:20.073Z,4.80
2023-05-15T12:40:53.378Z,4.93
2023-05-15T12:43:23.493Z,5.80
2023-05-15T12:45:53.416Z,4.90
2023-05-15T12:48:21.363Z,5.17
2023-05-15T12:50:48.413Z,5.23
2023-05-15T12:53:16.312Z,5.00
2023-05-15T12:55:46.181Z,5.30
2023-05-15T12:58:15.139Z,4.43
2023-05-15T13:00:46.017Z,4.70
2023-05-15T13:03:13.989Z,4.00
2023-05-15T13:05:44.757Z,4.17
2023-05-15T13:08:18.499Z,4.00
2023-05-15T13:10:47.108Z,3.97
2023-05-15T13:13:14.296Z,4.43
2023-05-15T13:15:43.723Z,3.90
2023-05-15T13:18:12.494Z,4.60
2023-05-15T13:20:47.711Z,5.17
2023-05-15T13:23:19.562Z,4.00
2023-05-15T13:25:46.356Z,4.77
2023-05-15T13:28:13.832Z,4.13
2023-05-15T13:30:41.866Z,4.20
2023-05-15T13:33:10.418Z,5.67
2023-05-15T13:35:37.987Z,4.10
2023-05-15T13:38:04.667Z,4.97
2023-05-15T13:40:33.344Z,4.30
2023-05-15T13:42:59.989Z,4.57
2023-05-15T13:45:27.080Z,5.00
2023-05-15T13:47:55.494Z,6.33
2023-05-15T13:50:22.331Z,4.20
2023-05-15T13:52:49.017Z,3.97
2023-05-15T13:55:16.060Z,4.40
2023-05-15T13:57:43.587Z,6.27
2023-05-15T14:00:13.190Z,4.67
2023-05-15T14:02:41.599Z,4.37
2023-05-15T14:05:09.937Z,4.40
2023-05-15T14:07:36.932Z,5.07
2023-05-15T14:10:04.132Z,4.30
2023-05-15T14:12:30.973Z,4.80
2023-05-15T14:14:58.094Z,4.83
2023-05-15T14:17:24.975Z,5.70
2023-05-15T14:19:54.951Z,11.10
2023-05-15T14:22:24.758Z,5.30
2023-05-15T14:24:52.807Z,4.50
2023-05-15T14:27:19.832Z,5.13
2023-05-15T14:29:48.191Z,4.97
2023-05-15T14:32:15.914Z,4.10
2023-05-15T14:34:42.775Z,7.00
2023-05-15T14:37:09.495Z,8.90
2023-05-15T14:39:36.162Z,4.90
2023-05-15T14:42:02.837Z,4.27
2023-05-15T14:44:29.547Z,4.70
2023-05-15T14:47:07.130Z,7.83
2023-05-15T14:49:34.440Z,7.20
2023-05-15T14:52:01.516Z,4.00
2023-05-15T14:54:29.011Z,5.53
2023-05-15T14:56:57.527Z,5.00
2023-05-15T14:59:25.811Z,6.93
2023-05-15T15:01:52.551Z,5.70
2023-05-15T15:04:19.467Z,4.50
2023-05-15T15:06:49.824Z,4.57
2023-05-15T15:09:17.821Z,4.37
2023-05-15T15:11:46.269Z,4.30
2023-05-15T15:14:13.047Z,4.37
2023-05-15T15:16:39.832Z,3.73
2023-05-15T15:19:06.581Z,3.73
2023-05-15T15:21:34.530Z,4.03
2023-05-15T15:24:01.179Z,4.10
2023-05-15T15:26:27.860Z,4.03
2023-05-15T15:29:00.540Z,4.83
2023-05-15T15:31:29.547Z,4.60
2023-05-15T15:33:57.351Z,4.17
2023-05-15T15:36:24.858Z,10.27
2023-05-15T15:38:51.881Z,3.30
2023-05-15T15:41:18.582Z,4.83
2023-05-15T15:43:45.322Z,8.60
2023-05-15T15:46:12.045Z,5.77
2023-05-15T15:48:38.696Z,6.80
2023-05-15T15:51:05.816Z,5.07
2023-05-15T15:53:34.398Z,5.83
2023-05-15T15:56:01.542Z,4.87
2023-05-15T15:58:28.909Z,6.00
2023-05-15T16:00:55.698Z,5.83
2023-05-15T16:03:22.514Z,4.57
2023-05-15T16:05:49.418Z,4.50
2023-05-15T16:08:16.111Z,6.63
2023-05-15T16:10:42.738Z,5.30
2023-05-15T16:13:09.420Z,4.80
2023-05-15T16:15:36.043Z,5.47
2023-05-15T16:18:02.670Z,4.47
2023-05-15T16:20:29.621Z,4.93
2023-05-15T16:22:56.518Z,6.73
2023-05-15T16:25:23.317Z,4.70
2023-05-15T16:27:49.971Z,4.40
2023-05-15T16:30:16.776Z,5.43
2023-05-15T16:32:43.467Z,4.80
2023-05-15T16:35:10.275Z,5.93
2023-05-15T16:37:37.188Z,4.53
2023-05-15T16:40:04.345Z,4.40
2023-05-15T16:42:35.920Z,3.77
2023-05-15T16:45:02.834Z,4.17
2023-05-15T16:47:29.492Z,4.67
2023-05-15T16:49:56.239Z,5.17
2023-05-15T16:52:22.862Z,6.43
2023-05-15T16:54:49.494Z,3.93
2023-05-15T16:57:16.143Z,3.90
2023-05-15T16:59:42.750Z,8.40
2023-05-15T17:02:09.544Z,5.40
2023-05-15T17:04:37.478Z,3.70
2023-05-15T17:07:05.199Z,3.83
2023-05-15T17:09:32.756Z,3.90
2023-05-15T17:11:59.681Z,6.90
2023-05-15T17:14:26.536Z,6.13
2023-05-15T17:16:53.253Z,4.27
2023-05-15T17:19:20.137Z,4.03
2023-05-15T17:21:47.166Z,5.40
2023-05-15T17:24:15.700Z,4.80
2023-05-15T17:26:42.602Z,4.13
2023-05-15T17:29:10.803Z,4.53
2023-05-15T17:31:38.844Z,4.23
2023-05-15T17:34:05.568Z,4.40
2023-05-15T17:36:33.604Z,8.07
2023-05-15T17:39:00.522Z,4.63
2023-05-15T17:41:27.231Z,4.07
2023-05-15T17:43:53.934Z,4.53
2023-05-15T17:46:20.820Z,7.77
2023-05-15T17:48:47.622Z,11.20
2023-05-15T17:51:14.300Z,7.57
2023-05-15T17:53:40.963Z,6.30
2023-05-15T17:56:08.024Z,4.70
2023-05-15T17:58:34.673Z,5.10
2023-05-15T18:01:01.943Z,4.80
2023-05-15T18:03:29.049Z,4.17
2023-05-15T18:05:56.065Z,3.83
2023-05-15T18:08:23.116Z,5.03
2023-05-15T18:10:49.897Z,3.40
2023-05-15T18:13:16.876Z,3.97
2023-05-15T18:15:43.655Z,2.80
2023-05-15T18:18:10.910Z,3.13
2023-05-15T18:20:37.578Z,3.13
2023-05-15T18:23:04.218Z,4.40
2023-05-15T18:25:31.148Z,2.80
2023-05-15T18:27:57.787Z,4.07
2023-05-15T18:30:24.483Z,5.17
2023-05-15T18:32:51.298Z,2.90
2023-05-15T18:35:18.098Z,3.37
2023-05-15T18:37:44.689Z,2.67
2023-05-15T18:40:11.728Z,2.90
2023-05-15T18:42:38.563Z,4.33
2023-05-15T18:45:06.343Z,4.13
2023-05-15T18:47:33.045Z,4.33
2023-05-15T18:49:59.770Z,4.53
2023-05-15T18:52:26.909Z,3.20
2023-05-15T18:54:54.172Z,3.57
2023-05-15T18:57:21.061Z,2.97
2023-05-15T18:59:48.047Z,2.93
2023-05-15T19:02:15.001Z,3.60
2023-05-15T19:04:41.727Z,3.20
2023-05-15T19:07:08.401Z,4.33
2023-05-15T19:09:35.411Z,3.73
2023-05-15T19:12:02.941Z,3.67
2023-05-15T19:14:29.654Z,3.57
2023-05-15T19:16:56.430Z,3.00
2023-05-15T19:19:23.403Z,4.20
2023-05-15T19:21:51.803Z,3.87
2023-05-15T19:24:18.934Z,2.37
2023-05-15T19:26:45.748Z,2.80
2023-05-15T19:29:12.620Z,4.60
2023-05-15T19:31:39.471Z,2.73
2023-05-15T19:34:06.219Z,3.87
2023-05-15T19:36:32.874Z,3.30
2023-05-15T19:38:59.556Z,3.77
2023-05-15T19:41:26.252Z,3.60
2023-05-15T19:43:53.010Z,3.90
2023-05-15T19:46:20.010Z,4.20
2023-05-15T19:48:46.768Z,5.37
2023-05-15T19:51:13.680Z,4.70
2023-05-15T19:53:41.309Z,5.90
2023-05-15T19:56:08.048Z,5.87
2023-05-15T19:58:34.701Z,5.73
2023-05-15T20:01:01.325Z,6.37
2023-05-15T20:03:33.171Z,4.20
2023-05-15T20:06:01.480Z,4.47
2023-05-15T20:08:28.759Z,4.73
2023-05-15T20:10:57.298Z,4.23
2023-05-15T20:13:24.084Z,4.80
2023-05-15T20:15:58.163Z,4.13
2023-05-15T20:18:30.352Z,4.47
2023-05-15T20:20:58.948Z,5.50
2023-05-15T20:23:25.638Z,4.03
2023-05-15T20:25:52.388Z,4.20
2023-05-15T20:28:19.140Z,4.97
2023-05-15T20:30:47.341Z,4.53
2023-05-15T20:33:14.541Z,4.43
2023-05-15T20:35:42.703Z,5.23
2023-05-15T20:38:10.471Z,6.20
2023-05-15T20:40:37.581Z,4.53
2023-05-15T20:43:04.643Z,7.00
2023-05-15T20:45:34.408Z,5.13
2023-05-15T20:48:01.227Z,4.83
2023-05-15T20:50:28.357Z,4.00
2023-05-15T20:52:55.697Z,3.93
2023-05-15T20:55:22.576Z,4.23
2023-05-15T20:57:50.652Z,4.30
2023-05-15T21:00:18.495Z,5.40
2023-05-15T21:02:46.770Z,4.50
2023-05-15T21:05:13.853Z,5.60
2023-05-15T21:07:40.783Z,5.20
2023-05-15T21:10:08.006Z,5.07
2023-05-15T21:12:34.859Z,5.90
2023-05-15T21:15:02.063Z,5.83
2023-05-15T21:17:28.850Z,5.27
2023-05-15T21:19:57.472Z,5.57
2023-05-15T21:22:24.626Z,5.83
2023-05-15T21:24:51.569Z,4.90
2023-05-15T21:27:18.233Z,4.83
2023-05-15T21:29:44.950Z,4.63
2023-05-15T21:32:11.765Z,4.93
2023-05-15T21:34:39.391Z,5.00
2023-05-15T21:37:06.091Z,5.70
2023-05-15T21:39:32.748Z,7.10
2023-05-15T21:41:59.488Z,5.30
2023-05-15T21:44:26.201Z,6.30
2023-05-15T21:46:53.346Z,6.53
2023-05-15T21:49:20.164Z,6.37
2023-05-15T21:51:46.825Z,6.07
2023-05-15T21:54:13.661Z,5.80
2023-05-15T21:56:41.125Z,5.67
2023-05-15T21:59:08.159Z,6.43
2023-05-15T22:01:36.100Z,5.93
2023-05-15T22:04:03.144Z,6.47
2023-05-15T22:06:29.960Z,5.60
2023-05-15T22:08:57.513Z,6.10
2023-05-15T22:11:25.602Z,6.50
2023-05-15T22:13:52.803Z,5.70
2023-05-15T22:16:20.230Z,5.77
2023-05-15T22:18:47.564Z,4.90
2023-05-15T22:21:15.065Z,5.20
2023-05-15T22:23:41.773Z,5.60
2023-05-15T22:26:08.542Z,5.20
2023-05-15T22:28:35.411Z,5.77
2023-05-15T22:31:03.021Z,5.37
2023-05-15T22:33:29.817Z,5.20
2023-05-15T22:35:56.516Z,4.90
2023-05-15T22:38:23.159Z,5.50
2023-05-15T22:40:51.567Z,7.57
2023-05-15T22:43:18.437Z,5.73
2023-05-15T22:45:45.318Z,5.50
2023-05-15T22:48:12.158Z,5.07
2023-05-15T22:50:38.912Z,5.30
2023-05-15T22:53:05.658Z,4.80
2023-05-15T22:55:32.606Z,5.13
2023-05-15T22:57:59.341Z,5.80
2023-05-15T23:00:26.431Z,5.53
2023-05-15T23:02:55.276Z,5.47
2023-05-15T23:05:22.852Z,6.27
2023-05-15T23:08:47.045Z,5.70
2023-05-15T23:11:13.783Z,6.00
2023-05-15T23:13:40.499Z,6.80
2023-05-15T23:16:07.320Z,6.63
2023-05-15T23:18:34.025Z,6.33
2023-05-15T23:21:02.363Z,6.60
2023-05-15T23:23:29.020Z,6.13
2023-05-15T23:25:55.730Z,6.33
2023-05-15T23:28:22.437Z,7.47
2023-05-15T23:30:51.888Z,7.27
2023-05-15T23:33:18.614Z,6.60
2023-05-15T23:35:45.398Z,6.07
2023-05-15T23:38:12.007Z,7.20
2023-05-15T23:40:38.735Z,8.93
2023-05-15T23:43:06.847Z,7.40
2023-05-15T23:45:33.662Z,7.40
2023-05-15T23:48:00.399Z,7.10
2023-05-15T23:50:27.313Z,7.60
2023-05-15T23:52:54.260Z,7.80
2023-05-15T23:55:20.972Z,6.90
2023-05-15T23:57:48.304Z,7.20
